Time;durP1;ratioP1;P1;durP2;ratioP2;P2;SDS_P1;SDS_P2;PMS_P1;PMS_P2;Temp;Humidity;BMP_temperature;BMP_pressure;BME280_temperature;BME280_humidity;BME280_pressure;Samples;Min_cycle;Max_cycle;Signal;HPM_P1;HPM_P2
2021/04/01 00:00:18;;;;;;;15.23;6.35;;;16.90;56.60;;;;;;4992561;28;20411;-74
2021/04/01 00:02:50;;;;;;;17.15;6.55;;;16.90;56.60;;;;;;4993341;28;20038;-74
2021/04/01 00:05:16;;;;;;;13.57;4.68;;;16.90;56.70;;;;;;4992904;28;20058;-75
2021/04/01 00:07:42;;;;;;;16.85;6.03;;;16.90;56.60;;;;;;4993237;28;20400;-74
2021/04/01 00:10:12;;;;;;;13.25;5.10;;;16.90;56.50;;;;;;4992551;28;20106;-74
2021/04/01 00:12:38;;;;;;;17.07;5.73;;;16.90;56.30;;;;;;4993458;28;20475;-75
2021/04/01 00:15:08;;;;;;;14.82;5.07;;;16.90;56.30;;;;;;4993979;28;20249;-75
2021/04/01 00:17:35;;;;;;;14.93;5.13;;;16.90;56.20;;;;;;4993054;28;20029;-75
2021/04/01 00:20:01;;;;;;;15.52;5.75;;;16.80;56.00;;;;;;4990791;28;20080;-74
2021/04/01 00:22:26;;;;;;;16.77;5.95;;;16.80;56.00;;;;;;4993493;28;20466;-74
2021/04/01 00:24:52;;;;;;;10.57;4.88;;;16.90;56.00;;;;;;4992797;28;20031;-75
2021/04/01 00:27:18;;;;;;;14.27;5.63;;;16.90;55.90;;;;;;4974446;28;20089;-75
2021/04/01 00:29:43;;;;;;;20.27;7.07;;;16.90;55.90;;;;;;4992537;28;20038;-74
2021/04/01 00:32:09;;;;;;;16.58;6.38;;;16.90;56.00;;;;;;4992000;28;20383;-74
2021/04/01 00:34:35;;;;;;;13.18;5.50;;;16.90;56.20;;;;;;4991436;28;20023;-74
2021/04/01 00:37:00;;;;;;;14.73;5.97;;;16.90;56.20;;;;;;4992024;28;20466;-75
2021/04/01 00:39:26;;;;;;;14.15;5.25;;;16.90;56.40;;;;;;4974927;28;20053;-74
2021/04/01 00:41:52;;;;;;;13.63;5.05;;;16.90;56.60;;;;;;4992545;28;20473;-74
2021/04/01 00:44:17;;;;;;;16.15;5.85;;;16.80;56.70;;;;;;4992025;28;20030;-74
2021/04/01 00:46:47;;;;;;;16.08;5.30;;;16.80;56.70;;;;;;4992753;28;20368;-74
2021/04/01 00:49:14;;;;;;;18.00;6.13;;;16.80;56.70;;;;;;4992088;28;20030;-74
2021/04/01 00:51:39;;;;;;;17.42;5.80;;;16.80;56.60;;;;;;4992396;28;20029;-74
2021/04/01 00:54:05;;;;;;;15.55;6.32;;;16.80;56.50;;;;;;4992171;28;20034;-74
2021/04/01 00:56:32;;;;;;;18.52;7.00;;;16.80;56.40;;;;;;4992540;28;20180;-74
2021/04/01 00:58:58;;;;;;;14.07;5.82;;;16.80;56.50;;;;;;4992334;28;20101;-75
2021/04/01 01:04:09;;;;;;;15.10;5.32;;;16.70;56.70;;;;;;4991495;28;20034;-74
2021/04/01 01:06:35;;;;;;;16.50;5.53;;;16.70;57.10;;;;;;4992626;28;20059;-74
2021/04/01 01:09:01;;;;;;;14.82;5.72;;;16.70;57.10;;;;;;4992114;28;20419;-75
2021/04/01 01:11:29;;;;;;;15.23;5.07;;;16.70;57.10;;;;;;4991601;28;20026;-75
2021/04/01 01:13:54;;;;;;;16.92;6.15;;;16.70;57.40;;;;;;4992190;28;20169;-74
2021/04/01 01:16:20;;;;;;;17.17;6.72;;;16.70;57.50;;;;;;4973784;28;20451;-74
2021/04/01 01:18:46;;;;;;;20.58;6.13;;;16.70;57.60;;;;;;4992202;28;20034;-74
2021/04/01 01:21:11;;;;;;;13.80;5.43;;;16.70;57.70;;;;;;4990974;28;20470;-74
2021/04/01 01:23:40;;;;;;;17.10;5.70;;;16.60;57.80;;;;;;4991892;28;20023;-74
2021/04/01 01:26:06;;;;;;;13.38;5.75;;;16.70;58.00;;;;;;4973659;28;20022;-75
2021/04/01 01:28:32;;;;;;;14.93;5.65;;;16.60;58.00;;;;;;4991546;28;20030;-74
2021/04/01 01:30:58;;;;;;;16.02;5.28;;;16.60;58.10;;;;;;4991656;28;20076;-74
2021/04/01 01:33:24;;;;;;;15.18;5.18;;;16.60;58.00;;;;;;4973493;28;20268;-75
2021/04/01 01:35:52;;;;;;;16.55;5.78;;;16.60;58.10;;;;;;4991659;28;20110;-74
2021/04/01 01:38:19;;;;;;;15.75;5.38;;;16.50;58.20;;;;;;4991025;28;20026;-75
2021/04/01 01:40:45;;;;;;;13.95;5.72;;;16.50;58.40;;;;;;4974162;28;20382;-74
2021/04/01 01:43:13;;;;;;;12.80;5.40;;;16.50;58.40;;;;;;4991007;28;20644;-74
2021/04/01 01:45:40;;;;;;;15.95;5.35;;;16.40;58.40;;;;;;4976564;28;20018;-74
2021/04/01 01:48:06;;;;;;;11.18;5.40;;;16.40;58.50;;;;;;4977290;28;20042;-75
2021/04/01 01:50:35;;;;;;;16.70;6.18;;;16.40;58.60;;;;;;4977472;28;20168;-74
2021/04/01 01:53:01;;;;;;;16.45;5.25;;;16.40;58.70;;;;;;4995608;28;20026;-74
2021/04/01 01:55:28;;;;;;;15.27;5.57;;;16.40;58.80;;;;;;4995027;28;20026;-75
2021/04/01 01:57:54;;;;;;;14.00;5.28;;;16.50;59.00;;;;;;4995412;28;20037;-74
2021/04/01 02:00:31;;;;;;;13.80;5.28;;;16.40;59.10;;;;;;4977251;28;20132;-73
2021/04/01 02:02:59;;;;;;;17.92;6.07;;;16.40;59.20;;;;;;4995347;28;20097;-75
2021/04/01 02:05:26;;;;;;;14.85;5.82;;;16.40;59.10;;;;;;4977006;28;20176;-74
2021/04/01 02:07:53;;;;;;;17.25;6.50;;;16.40;59.00;;;;;;4995574;28;20114;-74
2021/04/01 02:10:24;;;;;;;19.27;6.47;;;16.40;58.90;;;;;;4976934;28;20031;-74
2021/04/01 02:12:50;;;;;;;15.70;6.35;;;16.40;58.80;;;;;;4995229;28;20084;-75
2021/04/01 02:15:18;;;;;;;13.75;5.07;;;16.40;58.70;;;;;;4994496;28;20137;-74
2021/04/01 02:17:44;;;;;;;14.68;5.30;;;16.40;58.60;;;;;;4995331;28;20034;-75
2021/04/01 02:20:10;;;;;;;15.15;6.00;;;16.40;58.40;;;;;;4981916;28;20054;-75
2021/04/01 02:22:37;;;;;;;17.90;7.10;;;16.40;58.30;;;;;;4975752;28;20022;-75
2021/04/01 02:25:04;;;;;;;15.45;6.60;;;16.40;58.20;;;;;;4975870;28;20045;-75
2021/04/01 02:27:30;;;;;;;20.58;7.00;;;16.40;58.30;;;;;;4974867;28;20439;-74
2021/04/01 02:29:55;;;;;;;13.60;6.35;;;16.40;58.40;;;;;;4975255;28;20030;-74
2021/04/01 02:32:21;;;;;;;16.50;6.97;;;16.40;58.30;;;;;;4973488;28;20185;-74
2021/04/01 02:34:48;;;;;;;18.58;6.82;;;16.40;58.40;;;;;;4975260;28;20414;-75
2021/04/01 02:37:13;;;;;;;14.52;5.75;;;16.40;58.40;;;;;;4974856;28;20046;-75
2021/04/01 02:39:39;;;;;;;17.02;6.10;;;16.30;58.20;;;;;;4975392;28;20440;-74
2021/04/01 02:42:06;;;;;;;16.10;6.18;;;16.30;58.20;;;;;;4975187;28;20034;-74
2021/04/01 02:44:31;;;;;;;16.25;6.20;;;16.30;58.00;;;;;;4973311;28;20035;-74
2021/04/01 02:46:57;;;;;;;17.90;8.10;;;16.20;57.90;;;;;;4974805;28;20026;-75
2021/04/01 02:49:23;;;;;;;18.27;6.35;;;16.20;58.00;;;;;;4974488;28;20058;-73
2021/04/01 02:51:48;;;;;;;16.50;6.10;;;16.10;57.90;;;;;;4974945;28;20034;-74
2021/04/01 02:54:14;;;;;;;19.75;7.85;;;16.10;57.90;;;;;;4974151;28;20101;-75
2021/04/01 02:56:39;;;;;;;19.88;6.10;;;16.10;58.00;;;;;;4974086;28;20027;-74
2021/04/01 02:59:05;;;;;;;20.45;7.22;;;16.10;57.90;;;;;;4974988;28;20034;-74
2021/04/01 03:01:31;;;;;;;18.60;6.00;;;16.10;57.90;;;;;;4972872;28;20054;-74
2021/04/01 03:03:58;;;;;;;12.32;5.50;;;16.10;57.80;;;;;;4973473;28;20457;-74
2021/04/01 03:06:24;;;;;;;15.65;5.88;;;16.10;57.80;;;;;;4974259;28;20127;-74
2021/04/01 03:08:49;;;;;;;19.90;6.53;;;16.10;57.50;;;;;;4974695;28;20031;-74
2021/04/01 03:11:15;;;;;;;16.90;7.03;;;16.10;57.40;;;;;;4974040;28;20070;-74
2021/04/01 03:13:41;;;;;;;18.88;7.10;;;16.10;57.30;;;;;;4974673;28;20117;-75
2021/04/01 03:16:06;;;;;;;15.75;6.18;;;16.00;57.30;;;;;;4974815;28;20158;-74
2021/04/01 03:18:32;;;;;;;23.92;7.43;;;16.00;57.20;;;;;;4973810;28;20074;-75
2021/04/01 03:20:58;;;;;;;15.25;6.22;;;16.00;57.20;;;;;;4974472;28;20046;-74
2021/04/01 03:23:25;;;;;;;15.52;6.78;;;15.90;57.10;;;;;;4974028;28;20023;-75
2021/04/01 03:25:51;;;;;;;18.23;7.97;;;15.90;57.10;;;;;;4974507;28;20122;-74
2021/04/01 03:28:17;;;;;;;21.88;7.57;;;15.80;57.10;;;;;;4973810;28;20459;-74
2021/04/01 03:30:49;;;;;;;15.07;5.68;;;15.80;57.10;;;;;;4974606;28;20427;-75
2021/04/01 03:33:14;;;;;;;19.65;7.32;;;15.70;57.10;;;;;;4972535;28;20109;-75
2021/04/01 03:35:40;;;;;;;21.80;7.95;;;15.70;57.10;;;;;;4974537;28;20734;-75
2021/04/01 03:38:07;;;;;;;24.27;9.23;;;15.70;57.30;;;;;;4973153;28;20046;-74
2021/04/01 03:40:34;;;;;;;22.88;7.97;;;15.60;57.30;;;;;;4973629;28;20030;-72
2021/04/01 03:43:00;;;;;;;15.00;5.80;;;15.60;57.30;;;;;;4974177;28;20027;-74
2021/04/01 03:45:25;;;;;;;21.75;7.13;;;15.60;57.40;;;;;;4973471;28;20046;-75
2021/04/01 03:47:52;;;;;;;15.00;5.07;;;15.60;57.50;;;;;;4974184;28;20097;-74
2021/04/01 03:50:18;;;;;;;18.05;5.75;;;15.50;57.50;;;;;;4973337;28;20114;-74
2021/04/01 03:52:43;;;;;;;18.02;7.35;;;15.50;57.50;;;;;;4972119;28;20456;-74
2021/04/01 03:57:53;;;;;;;15.45;7.15;;;15.40;57.60;;;;;;4974024;28;20118;-74
2021/04/01 04:00:28;;;;;;;18.17;6.50;;;15.40;57.50;;;;;;4973134;28;20456;-74
2021/04/01 04:05:45;;;;;;;19.83;7.03;;;15.30;57.40;;;;;;4973035;28;20031;-72
2021/04/01 04:10:54;;;;;;;13.57;5.63;;;15.30;57.70;;;;;;4973687;28;20042;-73
2021/04/01 04:15:48;;;;;;;21.67;7.75;;;15.30;57.90;;;;;;4973513;28;20109;-74
2021/04/01 04:18:14;;;;;;;21.58;6.43;;;15.20;58.00;;;;;;4972050;28;20117;-75
2021/04/01 04:20:40;;;;;;;15.85;6.88;;;15.20;58.10;;;;;;4973947;28;20057;-74
2021/04/01 04:23:07;;;;;;;16.48;6.53;;;15.20;58.30;;;;;;4992832;28;20352;-74
2021/04/01 04:25:34;;;;;;;18.30;6.47;;;15.10;58.50;;;;;;4992396;28;20015;-74
2021/04/01 04:30:35;;;;;;;15.77;6.85;;;15.10;58.80;;;;;;4991307;28;20026;-74
2021/04/01 04:33:01;;;;;;;16.30;6.00;;;15.00;58.70;;;;;;4992169;28;20407;-75
2021/04/01 04:35:26;;;;;;;15.02;5.45;;;15.00;58.70;;;;;;4974139;28;20026;-74
2021/04/01 04:37:52;;;;;;;15.98;5.85;;;15.00;58.80;;;;;;4992374;28;20014;-75
2021/04/01 04:40:18;;;;;;;16.23;5.88;;;15.00;58.70;;;;;;4991931;28;20101;-74
2021/04/01 04:42:44;;;;;;;16.17;6.07;;;15.00;58.80;;;;;;4991687;28;20502;-74
2021/04/01 04:45:10;;;;;;;24.27;7.10;;;15.00;58.70;;;;;;4991260;28;20045;-74
2021/04/01 04:47:36;;;;;;;23.00;8.13;;;15.00;58.80;;;;;;4991198;28;20030;-75
2021/04/01 04:50:04;;;;;;;19.15;6.72;;;14.90;58.90;;;;;;4991694;28;20111;-74
2021/04/01 04:52:31;;;;;;;19.60;7.03;;;14.90;59.00;;;;;;4991781;28;20533;-75
2021/04/01 04:54:57;;;;;;;15.57;6.20;;;14.90;59.10;;;;;;4992356;28;20073;-74
2021/04/01 04:57:43;;;;;;;13.82;5.88;;;14.90;59.10;;;;;;4991547;28;20022;-75
2021/04/01 05:05:26;;;;;;;16.00;6.45;;;14.80;59.30;;;;;;4991509;28;20033;-74
2021/04/01 05:07:51;;;;;;;15.88;5.45;;;14.80;59.40;;;;;;4992030;28;20027;-75
2021/04/01 05:10:17;;;;;;;18.85;6.35;;;14.70;59.60;;;;;;4992045;28;20038;-74
2021/04/01 05:12:48;;;;;;;17.08;6.43;;;14.70;59.70;;;;;;4991128;28;20088;-74
2021/04/01 05:15:14;;;;;;;15.70;6.50;;;14.70;59.80;;;;;;4973842;28;20105;-74
2021/04/01 05:17:40;;;;;;;17.38;6.43;;;14.70;59.90;;;;;;4970486;28;20419;-74
2021/04/01 05:20:07;;;;;;;16.50;6.05;;;14.70;60.00;;;;;;4970434;28;20447;-86
2021/04/01 05:22:42;;;;;;;21.42;7.30;;;14.70;60.20;;;;;;4969810;28;20386;-87
2021/04/01 05:25:10;;;;;;;15.02;5.70;;;14.70;60.20;;;;;;4972489;28;20023;-85
2021/04/01 05:30:31;;;;;;;20.45;6.18;;;14.70;60.30;;;;;;4966897;28;20042;-73
2021/04/01 05:32:57;;;;;;;19.42;6.25;;;14.60;60.40;;;;;;4984437;28;20029;-74
2021/04/01 05:35:23;;;;;;;20.50;6.57;;;14.60;60.50;;;;;;4991522;28;20018;-74
2021/04/01 05:37:49;;;;;;;16.73;6.40;;;14.60;60.60;;;;;;4973978;28;20311;-74
2021/04/01 05:40:15;;;;;;;18.05;5.72;;;14.60;60.70;;;;;;4991366;28;20125;-75
2021/04/01 05:42:46;;;;;;;15.70;6.22;;;14.60;60.80;;;;;;4991003;28;20030;-74
2021/04/01 05:45:19;;;;;;;14.88;5.70;;;14.60;60.90;;;;;;4991490;28;20054;-74
2021/04/01 05:47:49;;;;;;;17.02;5.95;;;14.60;61.00;;;;;;4991049;28;20022;-74
2021/04/01 06:03:57;;;;;;;22.00;7.55;;;14.60;61.30;;;;;;4990881;28;20084;-75
2021/04/01 06:07:00;;;;;;;14.00;5.75;;;14.60;61.20;;;;;;4991607;28;20026;-75
2021/04/01 06:09:25;;;;;;;23.48;9.13;;;14.60;61.30;;;;;;4989093;28;20026;-75
2021/04/01 06:11:53;;;;;;;18.00;7.63;;;14.60;61.30;;;;;;4991511;28;20026;-74
2021/04/01 06:14:34;;;;;;;14.80;6.07;;;14.60;61.30;;;;;;4973348;28;20440;-75
2021/04/01 06:17:10;;;;;;;15.30;6.60;;;14.60;61.30;;;;;;4991349;28;20467;-75
2021/04/01 06:19:38;;;;;;;18.60;6.82;;;14.60;61.30;;;;;;4973253;28;20023;-75
2021/04/01 06:22:05;;;;;;;16.35;7.97;;;14.60;61.30;;;;;;4991413;28;20030;-75
2021/04/01 06:24:32;;;;;;;22.85;7.38;;;14.60;61.20;;;;;;4990912;28;20085;-74
2021/04/01 06:27:16;;;;;;;21.10;7.80;;;14.60;61.30;;;;;;4991289;28;20022;-74
2021/04/01 06:30:11;;;;;;;18.15;7.53;;;14.60;61.40;;;;;;4990784;28;20026;-74
2021/04/01 06:32:34;;;;;;;22.10;8.63;;;14.60;61.40;;;;;;4992305;28;20060;-74
2021/04/01 06:35:42;;;;;;;22.00;8.07;;;14.60;61.80;;;;;;4994951;28;20022;-75
2021/04/01 06:38:26;;;;;;;24.30;8.18;;;14.60;61.80;;;;;;4994288;28;20050;-75
2021/04/01 06:40:58;;;;;;;20.40;7.03;;;14.60;61.80;;;;;;4993601;28;20045;-75
2021/04/01 06:43:27;;;;;;;22.30;8.60;;;14.60;61.90;;;;;;4994509;28;20019;-75
2021/04/01 06:46:00;;;;;;;21.95;7.53;;;14.60;61.90;;;;;;4994117;28;20025;-75
2021/04/01 06:48:42;;;;;;;27.85;8.43;;;14.60;62.00;;;;;;4994805;28;20022;-74
2021/04/01 06:51:11;;;;;;;29.27;8.95;;;14.60;62.00;;;;;;4977139;28;20026;-75
2021/04/01 06:53:44;;;;;;;22.83;9.45;;;14.60;62.20;;;;;;4993757;28;20077;-75
2021/04/01 06:56:19;;;;;;;25.58;9.25;;;14.60;62.20;;;;;;4994584;28;20037;-74
2021/04/01 07:02:43;;;;;;;26.02;9.75;;;14.70;62.10;;;;;;4981699;28;20382;-75
2021/04/01 07:05:25;;;;;;;28.85;9.18;;;14.60;62.00;;;;;;4994325;28;20022;-76
2021/04/01 07:07:58;;;;;;;;;;;14.70;62.00;;;;;;4976548;28;20030;-74
2021/04/01 07:12:50;;;;;;;24.40;8.73;;;14.60;61.80;;;;;;4993551;28;20034;-75
2021/04/01 07:15:20;;;;;;;21.38;8.27;;;14.60;61.80;;;;;;4994068;28;20477;-75
2021/04/01 07:17:57;;;;;;;22.58;8.32;;;14.70;61.80;;;;;;4993609;28;20019;-74
2021/04/01 07:20:47;;;;;;;27.77;9.85;;;14.70;61.80;;;;;;4993814;28;20089;-75
2021/04/01 07:48:16;;;;;;;30.40;8.93;;;14.80;61.80;;;;;;4993534;28;20033;-75
2021/04/01 07:50:44;;;;;;;24.45;10.00;;;14.80;61.70;;;;;;4992810;28;20041;-75
2021/04/01 07:53:12;;;;;;;26.35;9.55;;;14.90;61.80;;;;;;4993537;28;20019;-75
2021/04/01 07:56:20;;;;;;;22.55;8.75;;;14.90;61.70;;;;;;4992816;28;20049;-75
2021/04/01 08:03:57;;;;;;;25.35;9.32;;;15.00;61.70;;;;;;4992535;28;20069;-74
2021/04/01 08:06:25;;;;;;;24.67;9.90;;;15.00;61.60;;;;;;4993142;28;20018;-75
2021/04/01 08:08:56;;;;;;;32.50;11.05;;;15.00;61.40;;;;;;4992489;28;20014;-75
2021/04/01 08:11:43;;;;;;;30.17;9.30;;;15.20;61.40;;;;;;4975682;28;20454;-75
2021/04/01 08:19:20;;;;;;;28.48;10.82;;;15.40;60.70;;;;;;4993104;28;20049;-75
2021/04/01 08:21:50;;;;;;;24.30;11.20;;;15.40;60.60;;;;;;4991973;28;20474;-76
2021/04/01 08:24:30;;;;;;;31.02;9.88;;;15.50;60.50;;;;;;4975409;28;20463;-75
2021/04/01 08:27:15;;;;;;;23.55;9.95;;;15.50;60.40;;;;;;4974698;28;20481;-74
2021/04/01 08:34:48;;;;;;;27.80;11.27;;;15.60;60.00;;;;;;4992101;28;20026;-75
2021/04/01 08:37:16;;;;;;;23.90;8.98;;;15.60;59.90;;;;;;4992688;28;20014;-75
2021/04/01 08:39:45;;;;;;;29.42;11.05;;;15.60;59.90;;;;;;4991645;28;20049;-75
2021/04/01 08:42:33;;;;;;;26.52;10.18;;;15.60;59.90;;;;;;4992754;28;20073;-75
2021/04/01 08:45:31;;;;;;;26.33;9.60;;;15.60;59.80;;;;;;4991979;28;20058;-74
2021/04/01 08:48:31;;;;;;;33.03;10.15;;;15.70;59.90;;;;;;4974291;28;20241;-75
2021/04/01 08:51:16;;;;;;;28.02;11.80;;;15.80;59.70;;;;;;4974123;28;20518;-75
2021/04/01 08:54:12;;;;;;;32.95;11.93;;;15.80;59.60;;;;;;4991586;28;20061;-75
2021/04/01 08:56:43;;;;;;;29.23;11.02;;;15.80;59.40;;;;;;4992072;28;20060;-75
2021/04/01 08:59:32;;;;;;;28.77;11.02;;;15.90;59.40;;;;;;4992276;28;20029;-76
2021/04/01 09:01:59;;;;;;;27.48;10.30;;;15.90;59.30;;;;;;4991356;28;20030;-75
2021/04/01 09:04:29;;;;;;;31.60;10.98;;;15.90;59.20;;;;;;4992216;28;20033;-75
2021/04/01 09:07:03;;;;;;;25.75;9.43;;;16.00;59.20;;;;;;4991182;28;20151;-74
2021/04/01 09:09:34;;;;;;;26.85;9.80;;;16.00;59.10;;;;;;4974690;28;20018;-74
2021/04/01 09:12:45;;;;;;;21.90;8.50;;;16.00;59.00;;;;;;4973912;28;20057;-74
2021/04/01 09:15:35;;;;;;;28.02;10.00;;;16.10;58.80;;;;;;4991601;28;20041;-75
2021/04/01 09:18:01;;;;;;;33.22;10.85;;;16.10;58.70;;;;;;4991084;28;20427;-75
2021/04/01 09:20:27;;;;;;;29.42;9.95;;;16.20;58.50;;;;;;4991532;28;20104;-75
2021/04/01 09:22:59;;;;;;;25.40;10.80;;;16.20;58.40;;;;;;4991397;28;20037;-75
2021/04/01 09:25:40;;;;;;;35.50;11.52;;;16.20;58.20;;;;;;4991621;28;20022;-75
2021/04/01 09:28:10;;;;;;;27.35;10.40;;;16.30;58.10;;;;;;4991757;28;20147;-75
2021/04/01 09:30:37;;;;;;;24.77;9.45;;;16.30;58.10;;;;;;4991774;28;20101;-76
2021/04/01 09:33:10;;;;;;;25.40;9.63;;;16.30;58.00;;;;;;4991127;28;20521;-74
2021/04/01 09:35:39;;;;;;;28.98;11.13;;;16.30;57.80;;;;;;4991836;28;20026;-74
2021/04/01 09:38:10;;;;;;;22.98;10.00;;;16.40;57.80;;;;;;4990856;28;20081;-75
2021/04/01 09:40:41;;;;;;;22.83;9.88;;;16.40;57.80;;;;;;4991712;28;20050;-75
2021/04/01 09:43:16;;;;;;;29.08;11.05;;;16.40;57.60;;;;;;4991633;28;20446;-74
2021/04/01 09:45:43;;;;;;;30.60;10.90;;;16.40;57.50;;;;;;4991080;28;20088;-75
2021/04/01 09:48:11;;;;;;;25.17;9.77;;;16.40;57.70;;;;;;4991598;28;20029;-75
2021/04/01 09:50:39;;;;;;;26.90;11.48;;;16.40;57.70;;;;;;4973894;28;20096;-75
2021/04/01 09:53:13;;;;;;;32.75;11.35;;;16.40;57.50;;;;;;4990991;28;20466;-74
2021/04/01 09:55:42;;;;;;;28.63;11.82;;;16.30;57.40;;;;;;4991561;28;20026;-75
2021/04/01 09:58:36;;;;;;;26.98;10.38;;;16.30;57.50;;;;;;4991416;28;20422;-74
2021/04/01 10:03:44;;;;;;;22.08;9.27;;;16.20;57.80;;;;;;4991649;28;20050;-75
2021/04/01 10:06:21;;;;;;;24.45;9.35;;;16.30;57.80;;;;;;4975562;28;20022;-74
2021/04/01 10:08:47;;;;;;;17.05;7.28;;;16.30;57.90;;;;;;4977372;28;20339;-73
2021/04/01 10:11:13;;;;;;;15.90;5.88;;;16.30;57.90;;;;;;4977836;28;20124;-74
2021/04/01 10:13:38;;;;;;;16.52;6.15;;;16.30;57.80;;;;;;4995090;28;20026;-75
2021/04/01 10:16:21;;;;;;;11.25;4.90;;;16.30;57.70;;;;;;4994562;28;20031;-75
2021/04/01 10:18:48;;;;;;;10.07;4.32;;;16.40;57.60;;;;;;4976826;28;20044;-74
2021/04/01 10:21:13;;;;;;;9.57;4.25;;;16.40;57.60;;;;;;4995512;28;20134;-74
2021/04/01 10:23:43;;;;;;;10.40;3.83;;;16.40;57.50;;;;;;4977315;28;20042;-75
2021/04/01 10:26:11;;;;;;;11.73;3.88;;;16.50;57.40;;;;;;4976939;28;20080;-76
2021/04/01 10:31:17;;;;;;;6.53;2.30;;;16.40;57.00;;;;;;4994364;28;20037;-75
2021/04/01 10:33:51;;;;;;;9.55;2.58;;;16.40;56.80;;;;;;4995444;28;20034;-75
2021/04/01 10:36:17;;;;;;;9.23;2.88;;;16.30;56.70;;;;;;4995463;28;20057;-74
2021/04/01 10:38:45;;;;;;;4.78;2.00;;;16.40;56.60;;;;;;4995714;28;20061;-75
2021/04/01 10:41:19;;;;;;;8.52;3.47;;;16.40;56.60;;;;;;4995579;28;20018;-75
2021/04/01 10:43:45;;;;;;;4.78;2.08;;;16.50;56.60;;;;;;4995620;28;20023;-75
2021/04/01 10:46:19;;;;;;;5.72;2.00;;;16.50;56.40;;;;;;4995734;28;20022;-75
2021/04/01 10:48:53;;;;;;;5.55;1.90;;;16.60;56.50;;;;;;4995440;28;20014;-74
2021/04/01 10:51:22;;;;;;;5.55;2.50;;;16.70;56.60;;;;;;4994515;28;20034;-75
2021/04/01 10:53:47;;;;;;;5.78;1.80;;;16.70;56.40;;;;;;4994205;28;20019;-75
2021/04/01 10:56:15;;;;;;;5.55;2.13;;;16.80;57.00;;;;;;4977252;28;20049;-75
2021/04/01 10:58:48;;;;;;;2.60;1.17;;;16.90;56.30;;;;;;4977186;28;20324;-74
2021/04/01 11:01:14;;;;;;;4.45;2.05;;;16.90;55.90;;;;;;4994395;28;20578;-75
2021/04/01 11:03:51;;;;;;;4.78;1.58;;;17.00;55.80;;;;;;4994554;28;20041;-75
2021/04/01 11:06:17;;;;;;;2.78;1.60;;;17.00;55.70;;;;;;4994459;28;20018;-75
2021/04/01 11:08:44;;;;;;;2.30;1.30;;;17.00;55.80;;;;;;4994563;28;20030;-75
2021/04/01 11:11:11;;;;;;;1.52;1.10;;;17.10;55.60;;;;;;4993592;28;20049;-74
2021/04/01 11:13:39;;;;;;;3.13;0.93;;;17.20;55.50;;;;;;4976743;28;20486;-74
2021/04/01 11:16:07;;;;;;;4.15;1.10;;;17.30;55.30;;;;;;4993567;28;20419;-74
2021/04/01 11:18:38;;;;;;;3.08;1.10;;;17.40;55.20;;;;;;4993568;28;20101;-76
2021/04/01 11:21:06;;;;;;;4.07;1.27;;;17.40;54.80;;;;;;4993135;28;20055;-75
2021/04/01 11:23:34;;;;;;;2.55;0.85;;;17.50;54.80;;;;;;4993699;28;20412;-74
2021/04/01 11:26:00;;;;;;;3.03;1.10;;;17.60;54.50;;;;;;4993423;28;20097;-75
2021/04/01 11:28:53;;;;;;;3.42;0.93;;;17.70;54.40;;;;;;4993766;28;20044;-74
2021/04/01 11:31:22;;;;;;;3.50;1.00;;;17.90;54.20;;;;;;4990980;28;20514;-76
2021/04/01 11:33:51;;;;;;;3.83;1.02;;;18.00;54.20;;;;;;4994247;28;20493;-75
2021/04/01 11:36:19;;;;;;;1.52;0.68;;;18.10;54.10;;;;;;4993890;28;20018;-76
2021/04/01 11:38:52;;;;;;;2.35;1.02;;;18.10;53.90;;;;;;4993557;28;20101;-76
2021/04/01 11:41:20;;;;;;;2.13;1.00;;;18.20;53.60;;;;;;4993781;28;20347;-75
2021/04/01 11:43:54;;;;;;;1.55;0.80;;;18.30;53.60;;;;;;4976606;28;20403;-75
2021/04/01 11:46:23;;;;;;;0.80;0.80;;;18.50;53.40;;;;;;4994365;28;20023;-74
2021/04/01 11:48:50;;;;;;;1.70;0.68;;;18.60;53.10;;;;;;4993497;28;20026;-74
2021/04/01 11:51:33;;;;;;;1.30;0.80;;;18.70;52.90;;;;;;4993542;28;20038;-75
2021/04/01 11:54:00;;;;;;;2.20;0.70;;;18.80;52.80;;;;;;4975388;28;20441;-75
2021/04/01 11:56:44;;;;;;;3.75;0.90;;;18.90;52.60;;;;;;4993395;28;20034;-75
2021/04/01 11:59:16;;;;;;;1.50;0.63;;;19.10;52.50;;;;;;4975359;28;20022;-75
2021/04/01 12:02:18;;;;;;;1.75;0.60;;;19.20;52.20;;;;;;4993063;28;20400;-74
2021/04/01 12:04:45;;;;;;;0.63;0.57;;;19.40;51.80;;;;;;4992360;28;20085;-75
2021/04/01 12:07:11;;;;;;;3.08;0.80;;;19.40;52.30;;;;;;4992662;28;20454;-75
2021/04/01 12:09:38;;;;;;;3.00;0.80;;;19.40;51.50;;;;;;4976454;28;20030;-75
2021/04/01 12:12:04;;;;;;;5.05;1.30;;;19.40;51.30;;;;;;4976432;28;20073;-75
2021/04/01 12:14:35;;;;;;;3.22;0.70;;;19.40;51.40;;;;;;4993189;28;20054;-75
2021/04/01 12:17:05;;;;;;;0.63;0.50;;;19.40;51.20;;;;;;4975289;28;20451;-75
2021/04/01 12:19:32;;;;;;;1.45;0.65;;;19.50;51.50;;;;;;4993210;28;20033;-74
2021/04/01 12:22:05;;;;;;;0.95;0.70;;;19.50;51.40;;;;;;4992107;28;20482;-74
2021/04/01 12:24:31;;;;;;;2.45;0.52;;;19.60;51.40;;;;;;4993536;28;20030;-75
2021/04/01 12:26:58;;;;;;;0.85;0.50;;;19.70;51.20;;;;;;4975352;28;20018;-75
2021/04/01 12:29:25;;;;;;;1.65;0.90;;;19.80;51.00;;;;;;4992078;28;20045;-75
2021/04/01 12:31:54;;;;;;;2.55;0.80;;;19.70;50.90;;;;;;4993154;28;20034;-76
2021/04/01 12:34:29;;;;;;;2.08;0.55;;;19.60;51.00;;;;;;4992874;28;20022;-75
2021/04/01 12:37:01;;;;;;;2.10;0.65;;;19.50;51.30;;;;;;4992345;28;20030;-74
2021/04/01 12:39:35;;;;;;;1.92;0.75;;;19.50;51.30;;;;;;4992867;28;20065;-75
2021/04/01 12:42:02;;;;;;;1.67;0.88;;;19.50;51.30;;;;;;4974468;28;20030;-74
2021/04/01 12:44:38;;;;;;;2.83;0.68;;;19.40;51.20;;;;;;4992496;28;20026;-75
2021/04/01 12:47:05;;;;;;;2.65;0.80;;;19.30;50.90;;;;;;4974234;28;20311;-75
2021/04/01 12:49:32;;;;;;;0.82;0.68;;;19.10;51.10;;;;;;4992452;28;20037;-75
2021/04/01 12:52:02;;;;;;;1.85;0.70;;;19.10;51.30;;;;;;4990581;28;20022;-76
2021/04/01 12:54:32;;;;;;;0.85;0.65;;;19.10;51.40;;;;;;4992474;28;20109;-75
2021/04/01 12:57:01;;;;;;;1.80;0.80;;;19.10;51.30;;;;;;4991732;28;20029;-75
2021/04/01 12:59:37;;;;;;;2.30;0.70;;;19.10;51.30;;;;;;4992460;28;20019;-74
2021/04/01 13:02:12;;;;;;;0.95;0.82;;;19.10;51.30;;;;;;4991612;28;20367;-75
2021/04/01 13:04:41;;;;;;;2.15;0.60;;;19.10;51.40;;;;;;4974623;28;20014;-75
2021/04/01 13:12:18;;;;;;;1.20;0.70;;;19.00;51.60;;;;;;4991454;28;20048;-75
2021/04/01 13:14:46;;;;;;;1.63;0.75;;;19.00;51.80;;;;;;4974638;28;20022;-74
2021/04/01 13:17:13;;;;;;;0.75;0.75;;;19.00;51.70;;;;;;4991397;28;20019;-74
2021/04/01 13:19:39;;;;;;;2.05;1.00;;;19.10;51.70;;;;;;4991977;28;20026;-74
2021/04/01 13:22:21;;;;;;;4.15;0.70;;;19.10;51.50;;;;;;4973651;28;20042;-74
2021/04/01 13:27:16;;;;;;;2.20;0.50;;;19.10;51.20;;;;;;4991228;28;20135;-75
2021/04/01 13:29:50;;;;;;;4.28;1.00;;;19.10;51.20;;;;;;4991708;28;20045;-75
2021/04/01 13:32:23;;;;;;;1.92;0.47;;;19.00;51.20;;;;;;4973751;28;20026;-75
2021/04/01 13:35:07;;;;;;;3.80;0.50;;;19.00;51.20;;;;;;4991877;28;20027;-75
2021/04/01 13:37:37;;;;;;;2.63;0.60;;;19.00;51.10;;;;;;4974872;28;20339;-75
2021/04/01 13:40:10;;;;;;;1.83;0.80;;;19.00;50.90;;;;;;4991121;28;20161;-75
2021/04/01 13:42:38;;;;;;;1.52;0.90;;;19.10;50.80;;;;;;4990488;28;20166;-75
2021/04/01 13:45:11;;;;;;;0.65;0.40;;;19.10;50.70;;;;;;4991342;28;20029;-76
2021/04/01 13:47:41;;;;;;;0.70;0.52;;;19.10;50.50;;;;;;4992143;28;20024;-76
2021/04/01 13:50:11;;;;;;;1.40;0.45;;;19.20;50.20;;;;;;4991300;28;20018;-76
2021/04/01 13:52:50;;;;;;;1.00;0.50;;;19.20;50.00;;;;;;4974337;28;20022;-75
2021/04/01 13:55:20;;;;;;;1.02;0.50;;;19.20;49.40;;;;;;4973692;28;20365;-74
2021/04/01 14:00:27;;;;;;;0.85;0.50;;;19.10;48.70;;;;;;4991067;28;20031;-75
2021/04/01 14:09:02;;;;;;;1.35;0.85;;;19.20;48.30;;;;;;4991821;28;20169;-74
2021/04/01 14:11:28;;;;;;;0.73;0.47;;;19.10;48.00;;;;;;4991387;28;20022;-75
2021/04/01 14:13:53;;;;;;;1.88;0.65;;;19.10;47.80;;;;;;4974163;28;20023;-75
2021/04/01 14:16:19;;;;;;;1.63;0.70;;;19.10;46.90;;;;;;4990341;28;20034;-75
2021/04/01 14:18:48;;;;;;;0.85;0.40;;;19.10;46.70;;;;;;4991446;28;20102;-74
2021/04/01 14:21:18;;;;;;;0.40;0.22;;;19.10;46.20;;;;;;4972991;28;20038;-74
2021/04/01 14:23:45;;;;;;;0.47;0.40;;;19.10;45.80;;;;;;4991294;28;20022;-75
2021/04/01 14:26:35;;;;;;;0.32;0.30;;;19.10;45.40;;;;;;4990804;28;20030;-75
2021/04/01 14:29:00;;;;;;;1.90;0.40;;;19.10;45.00;;;;;;4990847;28;20026;-74
2021/04/01 14:31:26;;;;;;;0.95;0.60;;;19.20;45.00;;;;;;4990566;28;20023;-75
2021/04/01 14:33:52;;;;;;;1.30;0.68;;;19.10;44.60;;;;;;4991221;28;20085;-76
2021/04/01 14:36:19;;;;;;;1.83;0.93;;;19.10;44.60;;;;;;4990570;28;20023;-75
2021/04/01 14:38:46;;;;;;;1.30;0.43;;;19.10;44.50;;;;;;4991313;28;20064;-75